Barnstable Municipal Boardman Polando Field
KHYA : now visible

Airfield :











YOU CAN JOIN US ON...

 
LOGIN :

Register | Disclaimer

   EN    FR    IT 

 









Legend :    VFR   Marginal VFR   IFR   Intensive IFR   Very Intensive IFR
Visi :
Ceiling :
>= 8 km
>= 3000ft
5 to 8 km
1000 to 3000 ft
1500m to 5 km
500 to 1000 ft
800 to 1500m
200 to 500 ft
< 800m
< 200 ft
Symbols :   Thunderstorms  Fog  Heavy snow  Heavy precipitations  Wind > 20 kt






- Airport Elevation : 54 ft
- IATA code : HYA


KHYA - Barnstable Municipal Boardman Polando Field

CURRENT METAR :
  • 120456Z AUTO 29008KT 10SM CLR M01/M04 A3035 RMK AO2 SLP278 T10061044 400671033

EXPIRED METARs :
  • 120356Z AUTO 25005KT 10SM CLR M02/M05 A3033 RMK AO2 SLP272 T10221050
  • 120256Z 27004KT 10SM CLR M02/M05 A3030 RMK AO2 SLP263 T10171050 51008

TAF KHYA
Valid from the 12 at 00:00 until the 13 at 00:00 UTC


112320Z 1200/1224 26008KT P6SM SKC
FM120400 28012G19KT P6SM FEW150
FM120900 31016G27KT P6SM SKC
FM121600 33011G18KT P6SM SKC
FM122300 01003KT P6SM FEW250



MET'MAP, your aeronautical weather chart ! - Copyright ORBIFLY December 2007 - Disclaimer

ORBIFLY MET'MAP TEAM :

Programming & Development : Alexandra Zaïnal
Concept & original design : Baudouin d'Aumeries
Assistance for programming : Marc-Olivier Méhu
Technical & hardware support : Manuel Goepfert

Contact : metmap@orbifly.com




SOURCES & CREDITS :

   NOAA       Earth
Advisory